Time;durP1;ratioP1;P1;durP2;ratioP2;P2;SDS_P1;SDS_P2;PMS_P1;PMS_P2;Temp;Humidity;BMP_temperature;BMP_pressure;BME280_temperature;BME280_humidity;BME280_pressure;Samples;Min_cycle;Max_cycle;Signal;HPM_P1;HPM_P2
2022/08/25 00:01:56;;;;;;;39.97;36.22;;;21.20;83.70;;;;;;4975231;28;20049;-77
2022/08/25 00:04:23;;;;;;;41.10;37.25;;;21.20;83.80;;;;;;4991471;28;20107;-76
2022/08/25 00:06:49;;;;;;;38.17;34.53;;;21.20;83.90;;;;;;5023553;28;20506;-76
2022/08/25 00:09:17;;;;;;;37.97;34.22;;;21.20;83.70;;;;;;4991642;28;20505;-76
2022/08/25 00:11:44;;;;;;;36.25;32.80;;;21.20;83.90;;;;;;4991270;28;20049;-77
2022/08/25 00:14:13;;;;;;;34.40;31.40;;;21.20;83.90;;;;;;4991266;28;20081;-76
2022/08/25 00:16:40;;;;;;;32.30;29.40;;;21.20;84.00;;;;;;4975248;28;20071;-77
2022/08/25 00:19:13;;;;;;;38.30;34.78;;;21.20;84.00;;;;;;4991243;28;20038;-76
2022/08/25 00:21:40;;;;;;;38.33;34.67;;;21.20;83.90;;;;;;4975260;28;20481;-77
2022/08/25 00:24:07;;;;;;;36.00;32.58;;;21.20;83.80;;;;;;4991301;28;20073;-76
2022/08/25 00:26:34;;;;;;;36.17;32.88;;;21.20;83.80;;;;;;4975172;28;20050;-76
2022/08/25 00:28:59;;;;;;;36.97;33.50;;;21.10;83.90;;;;;;4974878;28;20047;-77
2022/08/25 00:31:26;;;;;;;34.42;31.23;;;21.10;83.80;;;;;;4991010;28;20054;-77
2022/08/25 00:33:53;;;;;;;34.33;31.23;;;21.10;83.70;;;;;;5023594;28;20050;-76
2022/08/25 00:36:19;;;;;;;34.60;31.40;;;21.10;83.90;;;;;;4974832;28;20077;-76
2022/08/25 00:38:47;;;;;;;37.63;34.25;;;21.10;83.80;;;;;;4975012;28;20280;-77
2022/08/25 00:41:20;;;;;;;38.72;35.20;;;21.10;83.90;;;;;;5023490;28;20041;-77
2022/08/25 00:43:48;;;;;;;33.55;30.55;;;21.00;84.10;;;;;;4991042;28;20175;-76
2022/08/25 00:46:19;;;;;;;36.15;32.95;;;21.00;84.10;;;;;;5023941;28;20090;-76
2022/08/25 00:48:49;;;;;;;37.03;33.72;;;20.90;84.20;;;;;;4990314;28;20399;-76
2022/08/25 00:51:21;;;;;;;35.42;32.38;;;20.90;84.00;;;;;;5023774;28;20486;-76
2022/08/25 00:53:47;;;;;;;37.53;34.05;;;20.90;84.00;;;;;;4974570;28;20050;-77
2022/08/25 00:56:13;;;;;;;35.60;32.30;;;20.90;84.00;;;;;;4990917;28;20035;-77
2022/08/25 00:58:40;;;;;;;38.15;34.58;;;20.90;84.20;;;;;;5023567;28;20057;-76
2022/08/25 01:01:06;;;;;;;34.75;31.55;;;20.90;84.10;;;;;;4974554;28;20635;-77
2022/08/25 01:03:32;;;;;;;34.47;31.08;;;20.90;84.10;;;;;;4990524;28;20057;-77
2022/08/25 01:06:00;;;;;;;33.88;30.77;;;20.80;84.10;;;;;;4974629;28;20078;-76
2022/08/25 01:08:28;;;;;;;34.03;31.00;;;20.80;84.00;;;;;;4990441;28;20038;-76
2022/08/25 01:10:57;;;;;;;34.08;31.00;;;20.80;84.00;;;;;;5023347;28;20042;-77
2022/08/25 01:13:31;;;;;;;34.65;31.27;;;20.80;84.00;;;;;;4974189;28;20038;-77
2022/08/25 01:15:57;;;;;;;33.15;29.92;;;20.70;83.90;;;;;;4990674;28;20038;-77
2022/08/25 01:18:23;;;;;;;31.35;28.45;;;20.70;83.80;;;;;;5023020;28;20506;-76
2022/08/25 01:20:54;;;;;;;32.38;29.27;;;20.70;83.60;;;;;;4990145;28;20074;-76
2022/08/25 01:23:21;;;;;;;31.20;28.23;;;20.70;83.50;;;;;;5023304;28;20082;-77
2022/08/25 01:26:06;;;;;;;31.45;28.63;;;20.60;83.40;;;;;;5023237;28;20123;-76
2022/08/25 01:28:33;;;;;;;31.10;28.02;;;20.60;83.30;;;;;;5022974;28;20046;-77
2022/08/25 01:30:58;;;;;;;30.27;27.33;;;20.50;83.20;;;;;;4973861;28;20482;-77
2022/08/25 01:33:24;;;;;;;31.50;28.60;;;20.50;83.10;;;;;;4989950;28;20099;-77
2022/08/25 01:35:50;;;;;;;28.92;26.23;;;20.50;83.00;;;;;;4990272;28;20072;-77
2022/08/25 01:38:19;;;;;;;29.73;27.02;;;20.50;83.00;;;;;;4990240;28;20054;-76
2022/08/25 01:40:45;;;;;;;30.90;28.02;;;20.40;82.90;;;;;;4990635;28;20472;-76
2022/08/25 01:43:14;;;;;;;27.08;24.55;;;20.40;82.90;;;;;;4990211;28;20129;-76
2022/08/25 01:45:43;;;;;;;30.10;27.13;;;20.40;82.80;;;;;;4990202;28;20450;-76
2022/08/25 01:48:10;;;;;;;29.40;26.40;;;20.40;82.80;;;;;;4989905;28;20049;-77
2022/08/25 01:50:36;;;;;;;29.38;26.33;;;20.30;82.80;;;;;;4989899;28;20477;-77
2022/08/25 01:53:08;;;;;;;30.60;27.55;;;20.30;82.80;;;;;;4989891;28;20046;-77
2022/08/25 01:55:50;;;;;;;29.35;26.65;;;20.30;82.80;;;;;;4989798;28;20552;-76
2022/08/25 01:58:17;;;;;;;29.27;26.17;;;20.20;82.70;;;;;;4973822;28;20045;-76
2022/08/25 02:00:48;;;;;;;29.52;26.83;;;20.20;82.70;;;;;;4973572;28;20072;-76
2022/08/25 02:03:15;;;;;;;28.77;26.13;;;20.20;82.60;;;;;;4989933;28;20046;-77
2022/08/25 02:05:41;;;;;;;29.48;26.38;;;20.20;82.60;;;;;;4973780;28;20457;-76
2022/08/25 02:08:07;;;;;;;28.00;25.35;;;20.10;82.50;;;;;;4989654;28;20042;-77
2022/08/25 02:10:34;;;;;;;27.63;24.95;;;20.10;82.50;;;;;;5022300;28;20095;-77
2022/08/25 02:12:59;;;;;;;28.13;25.30;;;20.10;82.40;;;;;;4957448;28;20041;-77
2022/08/25 02:15:25;;;;;;;27.30;24.52;;;20.00;82.30;;;;;;4989441;28;20047;-76
2022/08/25 02:17:51;;;;;;;27.70;24.92;;;20.00;82.30;;;;;;4973333;28;20074;-76
2022/08/25 02:20:17;;;;;;;25.23;22.60;;;20.00;82.10;;;;;;4973295;28;20046;-76
2022/08/25 02:22:43;;;;;;;26.08;23.45;;;20.00;82.10;;;;;;5022203;28;20034;-76
2022/08/25 02:25:09;;;;;;;24.83;22.52;;;19.90;82.00;;;;;;4973257;28;20064;-76
2022/08/25 02:27:35;;;;;;;24.70;22.27;;;19.90;81.90;;;;;;5022205;28;20130;-77
2022/08/25 02:30:03;;;;;;;22.85;20.83;;;19.90;81.80;;;;;;4973317;28;20042;-76
2022/08/25 02:32:28;;;;;;;23.60;21.35;;;19.90;81.70;;;;;;4989207;28;20135;-76
2022/08/25 02:34:54;;;;;;;15.30;13.68;;;19.90;81.60;;;;;;4989271;28;20089;-76
2022/08/25 02:37:20;;;;;;;22.23;20.00;;;19.90;81.50;;;;;;4989309;28;20039;-76
2022/08/25 02:39:45;;;;;;;20.73;18.73;;;19.80;81.30;;;;;;4989384;28;20038;-76
2022/08/25 02:42:11;;;;;;;19.92;18.08;;;19.90;81.30;;;;;;4973063;28;20038;-77
2022/08/25 02:44:37;;;;;;;17.80;16.10;;;19.90;81.20;;;;;;4989591;28;20050;-76
2022/08/25 02:47:03;;;;;;;18.55;16.65;;;19.80;81.00;;;;;;5021950;28;20491;-77
2022/08/25 02:49:30;;;;;;;18.00;16.13;;;19.80;80.90;;;;;;5021893;28;20050;-76
2022/08/25 02:51:58;;;;;;;18.60;16.90;;;19.80;80.90;;;;;;4973127;28;20242;-75
2022/08/25 02:54:24;;;;;;;19.05;17.10;;;19.80;80.90;;;;;;4972908;28;20138;-76
2022/08/25 02:56:50;;;;;;;18.67;15.90;;;19.70;80.80;;;;;;5022132;28;20065;-75
2022/08/25 02:59:17;;;;;;;16.05;14.48;;;19.70;80.80;;;;;;4988992;28;20117;-77
2022/08/25 03:01:43;;;;;;;17.63;14.05;;;19.60;80.80;;;;;;5021844;28;20119;-77
2022/08/25 03:04:09;;;;;;;15.75;14.15;;;19.60;80.70;;;;;;4972934;28;20482;-76
2022/08/25 03:06:34;;;;;;;14.10;12.75;;;19.60;80.60;;;;;;4972956;28;20091;-76
2022/08/25 03:09:00;;;;;;;13.95;11.05;;;19.50;80.60;;;;;;4988952;28;20046;-77
2022/08/25 03:11:27;;;;;;;12.57;11.40;;;19.50;80.50;;;;;;4990184;28;20064;-77
2022/08/25 03:13:53;;;;;;;12.63;11.00;;;19.50;80.30;;;;;;4992355;28;20511;-77
2022/08/25 03:16:20;;;;;;;12.18;10.95;;;19.50;80.20;;;;;;5025088;28;20042;-77
2022/08/25 03:18:45;;;;;;;11.10;10.00;;;19.50;80.20;;;;;;5024969;28;20479;-77
2022/08/25 03:21:12;;;;;;;13.95;8.75;;;19.50;80.20;;;;;;4992091;28;20044;-76
2022/08/25 03:23:39;;;;;;;9.80;8.38;;;19.50;80.10;;;;;;4976130;28;20077;-76
2022/08/25 03:28:48;;;;;;;8.68;6.97;;;19.50;79.80;;;;;;4978633;28;20038;-77
2022/08/25 03:31:14;;;;;;;9.35;7.05;;;19.50;79.70;;;;;;4991893;28;20384;-77
2022/08/25 03:33:40;;;;;;;9.07;6.55;;;19.50;79.70;;;;;;4991700;28;20050;-76
2022/08/25 03:36:07;;;;;;;8.52;6.13;;;19.50;79.50;;;;;;5024671;28;20053;-76
2022/08/25 03:38:33;;;;;;;7.32;6.32;;;19.50;79.00;;;;;;5024608;28;20074;-76
2022/08/25 03:40:59;;;;;;;8.23;6.63;;;19.50;78.90;;;;;;4992211;28;20288;-77
2022/08/25 03:43:25;;;;;;;10.43;5.78;;;19.50;78.70;;;;;;4992090;28;20034;-77
2022/08/25 03:45:50;;;;;;;8.32;5.95;;;19.50;78.60;;;;;;4992119;28;20445;-76
2022/08/25 03:48:16;;;;;;;8.45;5.82;;;19.50;78.50;;;;;;4975616;28;20498;-78
2022/08/25 03:50:50;;;;;;;7.53;5.03;;;19.50;78.30;;;;;;4959366;28;20056;-77
2022/08/25 03:53:16;;;;;;;;;;;19.50;77.90;;;;;;5025232;28;20070;-76
2022/08/25 03:55:42;;;;;;;9.20;5.45;;;19.50;77.30;;;;;;5024294;28;20360;-77
2022/08/25 03:58:08;;;;;;;7.03;5.53;;;19.50;77.60;;;;;;4991663;28;20038;-77
2022/08/25 04:00:33;;;;;;;8.27;5.70;;;19.60;77.20;;;;;;4991555;28;20507;-76
2022/08/25 04:02:59;;;;;;;6.05;5.40;;;19.60;77.40;;;;;;5024313;28;20072;-78
2022/08/25 04:05:25;;;;;;;9.43;5.97;;;19.60;77.10;;;;;;5024227;28;20104;-76
2022/08/25 04:07:51;;;;;;;7.20;5.65;;;19.60;76.80;;;;;;4975663;28;20117;-77
2022/08/25 04:10:16;;;;;;;7.32;5.22;;;19.60;76.80;;;;;;4991581;28;20053;-77
2022/08/25 04:12:42;;;;;;;5.25;4.82;;;19.60;76.50;;;;;;4991832;28;20049;-77
2022/08/25 04:15:09;;;;;;;10.05;5.50;;;19.60;76.40;;;;;;4959136;28;20486;-77
2022/08/25 04:17:39;;;;;;;9.68;6.05;;;19.70;76.20;;;;;;4975395;28;20042;-77
2022/08/25 04:20:07;;;;;;;9.02;5.47;;;19.60;76.10;;;;;;4975086;28;20402;-75
2022/08/25 04:22:33;;;;;;;9.77;5.70;;;19.60;76.10;;;;;;5022773;28;20085;-76
2022/08/25 04:24:59;;;;;;;7.85;5.55;;;19.60;76.30;;;;;;4991167;28;20152;-77
2022/08/25 04:27:25;;;;;;;10.52;6.57;;;19.60;76.30;;;;;;5024097;28;20175;-76
2022/08/25 04:29:50;;;;;;;9.10;6.15;;;19.50;76.60;;;;;;4990927;28;20504;-76
2022/08/25 04:32:16;;;;;;;9.65;5.70;;;19.60;76.80;;;;;;4990763;28;20046;-77
2022/08/25 04:34:42;;;;;;;7.10;6.40;;;19.60;77.00;;;;;;4974578;28;20129;-76
2022/08/25 04:37:08;;;;;;;7.32;6.60;;;19.50;77.20;;;;;;5023785;28;20046;-77
2022/08/25 04:39:34;;;;;;;6.57;5.47;;;19.50;77.30;;;;;;4991127;28;20038;-78
2022/08/25 04:42:00;;;;;;;6.90;5.70;;;19.50;77.40;;;;;;4990887;28;20053;-76
2022/08/25 04:44:27;;;;;;;7.35;5.65;;;19.50;77.40;;;;;;5023655;28;20413;-76
2022/08/25 04:46:52;;;;;;;7.65;4.80;;;19.50;77.40;;;;;;5023680;28;20053;-77
2022/08/25 04:49:18;;;;;;;8.23;4.90;;;19.60;77.30;;;;;;4974713;28;20042;-77
2022/08/25 04:51:45;;;;;;;6.13;5.40;;;19.60;77.30;;;;;;4990786;28;20042;-77
2022/08/25 04:54:15;;;;;;;9.27;5.47;;;19.60;77.20;;;;;;5023785;28;20135;-77
2022/08/25 04:56:42;;;;;;;6.70;5.03;;;19.60;77.30;;;;;;5023912;28;20100;-76
2022/08/25 04:59:11;;;;;;;7.88;5.30;;;19.60;77.40;;;;;;4991372;28;20078;-76
2022/08/25 05:01:38;;;;;;;6.40;5.15;;;19.60;77.50;;;;;;4990950;28;20516;-76
2022/08/25 05:04:06;;;;;;;7.40;4.60;;;19.60;77.20;;;;;;5023517;28;20054;-76
2022/08/25 05:06:32;;;;;;;9.73;5.45;;;19.60;77.00;;;;;;5023347;28;20046;-76
2022/08/25 05:08:58;;;;;;;8.35;5.22;;;19.60;76.50;;;;;;4990498;28;20050;-76
2022/08/25 05:11:25;;;;;;;6.53;4.90;;;19.70;76.30;;;;;;4990689;28;20098;-76
2022/08/25 05:13:53;;;;;;;10.32;5.50;;;19.70;76.10;;;;;;4974223;28;20042;-76
2022/08/25 05:16:21;;;;;;;6.07;4.80;;;19.70;76.30;;;;;;4990374;28;20046;-76
2022/08/25 05:18:46;;;;;;;6.97;4.80;;;19.70;76.40;;;;;;4990356;28;20119;-75
2022/08/25 05:21:18;;;;;;;6.35;4.85;;;19.70;76.50;;;;;;4974221;28;20080;-77
2022/08/25 05:23:45;;;;;;;5.45;4.95;;;19.70;76.40;;;;;;5023216;28;20104;-75
2022/08/25 05:26:20;;;;;;;5.00;4.50;;;19.70;76.40;;;;;;5023396;28;20383;-76
2022/08/25 05:28:47;;;;;;;8.20;4.88;;;19.70;76.10;;;;;;4974022;28;20048;-76
2022/08/25 05:31:14;;;;;;;8.30;4.85;;;19.80;75.80;;;;;;4990490;28;20042;-76
2022/08/25 05:33:41;;;;;;;7.88;4.50;;;19.80;75.60;;;;;;4989639;28;20453;-77
2022/08/25 05:36:09;;;;;;;7.95;5.07;;;19.80;75.70;;;;;;4990118;28;20081;-78
2022/08/25 05:38:36;;;;;;;7.28;5.28;;;19.90;75.60;;;;;;4974013;28;20077;-76
2022/08/25 05:41:04;;;;;;;6.72;4.82;;;19.90;75.70;;;;;;4973809;28;20504;-76
2022/08/25 05:43:31;;;;;;;6.85;5.20;;;19.90;75.90;;;;;;5023065;28;20125;-77
2022/08/25 05:45:58;;;;;;;5.07;4.57;;;19.90;76.00;;;;;;5022987;28;20052;-77
2022/08/25 05:48:25;;;;;;;8.10;5.05;;;20.00;76.00;;;;;;5022702;28;20038;-77
2022/08/25 05:50:52;;;;;;;8.73;5.07;;;20.00;75.90;;;;;;4989930;28;20048;-78
2022/08/25 05:53:19;;;;;;;8.25;5.30;;;20.00;76.20;;;;;;4990129;28;20107;-77
2022/08/25 05:55:45;;;;;;;8.63;5.80;;;20.10;76.10;;;;;;4973559;28;20047;-77
2022/08/25 05:58:10;;;;;;;8.63;5.13;;;20.10;76.10;;;;;;4973626;28;20115;-77
2022/08/25 06:00:37;;;;;;;8.85;4.90;;;20.20;76.30;;;;;;4989763;28;20046;-77
2022/08/25 06:03:03;;;;;;;9.77;4.20;;;20.20;76.40;;;;;;4989701;28;20034;-76
2022/08/25 06:05:29;;;;;;;10.48;4.50;;;20.20;75.90;;;;;;4973987;28;20128;-76
2022/08/25 06:07:55;;;;;;;8.63;4.35;;;20.30;75.80;;;;;;4973891;28;20443;-76
2022/08/25 06:10:21;;;;;;;6.00;4.20;;;20.40;75.40;;;;;;5022640;28;20069;-76
2022/08/25 06:12:48;;;;;;;6.05;4.07;;;20.40;74.90;;;;;;4989655;28;20486;-75
2022/08/25 06:15:18;;;;;;;5.60;4.65;;;20.50;74.40;;;;;;4957392;28;20040;-76
2022/08/25 06:17:44;;;;;;;8.10;4.28;;;20.60;74.00;;;;;;5022545;28;20433;-76
2022/08/25 06:20:30;;;;;;;6.85;4.28;;;20.70;73.60;;;;;;4989533;28;20081;-74
2022/08/25 06:22:57;;;;;;;6.95;4.10;;;20.70;73.20;;;;;;4989317;28;20046;-75
2022/08/25 06:25:24;;;;;;;6.75;4.30;;;20.80;73.30;;;;;;4992226;28;20073;-74
2022/08/25 06:27:50;;;;;;;4.93;4.22;;;20.80;73.40;;;;;;5034328;28;20038;-74
2022/08/25 06:30:21;;;;;;;5.63;4.00;;;20.90;73.20;;;;;;5008480;28;20095;-73
2022/08/25 06:32:48;;;;;;;8.85;4.47;;;21.00;72.70;;;;;;5008113;28;20054;-74
2022/08/25 06:35:17;;;;;;;7.18;4.30;;;21.00;72.50;;;;;;5009397;28;20046;-75
2022/08/25 06:37:43;;;;;;;5.38;4.47;;;21.10;72.50;;;;;;5008486;28;20404;-75
2022/08/25 06:40:10;;;;;;;5.75;4.00;;;21.20;72.60;;;;;;5008105;28;20042;-75
2022/08/25 06:42:36;;;;;;;6.85;4.30;;;21.30;72.70;;;;;;4992040;28;20038;-75
2022/08/25 06:45:03;;;;;;;6.82;3.88;;;21.30;72.50;;;;;;5008586;28;20081;-75
2022/08/25 06:47:29;;;;;;;6.18;4.10;;;21.40;72.40;;;;;;5010971;28;20077;-75
2022/08/25 06:49:55;;;;;;;7.40;4.38;;;21.50;72.10;;;;;;5011594;28;20080;-75
2022/08/25 06:52:20;;;;;;;9.32;4.03;;;21.50;72.00;;;;;;5011662;28;20148;-76
2022/08/25 06:54:47;;;;;;;7.60;4.18;;;21.60;71.80;;;;;;5011944;28;20042;-75
2022/08/25 06:57:13;;;;;;;6.97;4.85;;;21.70;71.60;;;;;;4995901;28;20125;-75
2022/08/25 06:59:39;;;;;;;8.07;3.92;;;21.80;71.60;;;;;;5011599;28;20042;-75
2022/08/25 07:02:05;;;;;;;7.75;4.00;;;21.90;71.50;;;;;;5011511;28;20034;-77
2022/08/25 07:04:32;;;;;;;8.32;4.53;;;21.90;71.20;;;;;;4994438;28;20485;-77
2022/08/25 07:06:58;;;;;;;11.07;4.38;;;22.00;71.20;;;;;;5010250;28;20045;-76
2022/08/25 07:09:24;;;;;;;4.47;4.05;;;22.00;70.60;;;;;;5012233;28;20038;-75
2022/08/25 07:11:51;;;;;;;7.55;4.10;;;22.20;70.70;;;;;;5011861;28;20059;-76
2022/08/25 07:14:17;;;;;;;5.70;3.80;;;22.20;70.50;;;;;;5011784;28;20046;-76
2022/08/25 07:16:44;;;;;;;7.03;3.92;;;22.40;70.30;;;;;;5012053;28;20037;-77
2022/08/25 07:19:10;;;;;;;6.45;4.28;;;22.40;70.00;;;;;;5011723;28;20034;-77
2022/08/25 07:21:38;;;;;;;6.40;3.72;;;22.50;69.70;;;;;;5011979;28;20026;-77
2022/08/25 07:24:08;;;;;;;6.95;3.70;;;22.50;69.40;;;;;;4979245;28;20094;-77
2022/08/25 07:26:35;;;;;;;4.78;4.05;;;22.60;69.30;;;;;;5011750;28;20081;-77
2022/08/25 07:29:04;;;;;;;10.35;4.05;;;22.70;69.20;;;;;;4995600;28;20052;-77
2022/08/25 07:31:30;;;;;;;7.03;3.97;;;22.80;69.00;;;;;;5011703;28;20053;-76
2022/08/25 07:36:41;;;;;;;6.13;3.80;;;23.00;68.40;;;;;;5011614;28;20042;-77
2022/08/25 07:39:06;;;;;;;8.38;4.50;;;23.10;68.30;;;;;;4995144;28;20076;-77
2022/08/25 07:41:36;;;;;;;4.82;3.40;;;23.20;67.80;;;;;;4995065;28;20073;-76
2022/08/25 07:44:03;;;;;;;7.60;3.90;;;23.30;67.40;;;;;;5011430;28;20042;-77
2022/08/25 07:46:28;;;;;;;5.22;3.97;;;23.40;67.30;;;;;;5011275;28;20049;-77
2022/08/25 07:48:54;;;;;;;7.60;3.90;;;23.50;67.10;;;;;;5011313;28;20048;-78
2022/08/25 07:51:20;;;;;;;7.90;4.22;;;23.60;66.90;;;;;;5011181;28;20074;-76
2022/08/25 07:53:45;;;;;;;7.25;3.60;;;23.70;66.50;;;;;;4995161;28;20046;-77
2022/08/25 07:56:14;;;;;;;11.02;4.75;;;23.80;65.90;;;;;;5011430;28;20379;-76
2022/08/25 07:58:40;;;;;;;6.88;3.95;;;24.00;65.40;;;;;;5010880;28;20115;-77
2022/08/25 08:01:12;;;;;;;7.45;4.25;;;24.10;65.70;;;;;;5011049;28;20034;-77
2022/08/25 08:03:38;;;;;;;4.38;3.53;;;24.20;65.00;;;;;;5011181;28;20050;-77
2022/08/25 08:06:12;;;;;;;6.10;3.85;;;24.30;65.10;;;;;;5011062;28;20109;-78
2022/08/25 08:08:42;;;;;;;7.13;3.38;;;24.40;64.70;;;;;;5011035;28;20073;-76
2022/08/25 08:11:33;;;;;;;10.07;4.35;;;24.40;64.50;;;;;;4994843;28;20030;-78
2022/08/25 08:14:00;;;;;;;4.20;3.53;;;24.60;64.00;;;;;;5010814;28;20128;-77
2022/08/25 08:16:29;;;;;;;6.20;3.65;;;24.70;63.70;;;;;;5010940;28;20049;-77
2022/08/25 08:18:55;;;;;;;5.10;3.40;;;24.80;63.30;;;;;;5010859;28;20037;-76
2022/08/25 08:21:26;;;;;;;5.07;3.45;;;24.90;63.10;;;;;;5011045;28;20096;-76
2022/08/25 08:23:53;;;;;;;6.80;4.50;;;25.00;62.70;;;;;;4994526;28;20046;-77
2022/08/25 08:26:20;;;;;;;4.25;3.20;;;25.20;62.60;;;;;;5010739;28;20046;-77
2022/08/25 08:28:46;;;;;;;5.85;3.40;;;25.30;62.80;;;;;;5010726;28;20046;-78
2022/08/25 08:31:12;;;;;;;6.95;3.40;;;25.40;62.50;;;;;;4994677;28;20053;-76
2022/08/25 08:33:37;;;;;;;6.63;3.75;;;25.40;61.60;;;;;;5011356;28;20050;-77
2022/08/25 08:36:07;;;;;;;8.27;3.47;;;25.50;61.40;;;;;;4995284;28;20054;-77
2022/08/25 08:38:34;;;;;;;7.78;3.63;;;25.60;61.30;;;;;;5011283;28;20046;-76
2022/08/25 08:44:41;;;;;;;4.60;3.35;;;25.90;60.90;;;;;;5010822;28;20050;-77
2022/08/25 08:47:29;;;;;;;6.43;3.30;;;26.10;59.80;;;;;;4994179;28;20137;-76
2022/08/25 08:50:09;;;;;;;5.13;3.30;;;26.20;59.80;;;;;;5010759;28;20390;-77
2022/08/25 08:52:47;;;;;;;14.52;3.78;;;26.30;59.70;;;;;;5010430;28;20120;-76
2022/08/25 08:55:24;;;;;;;6.05;3.00;;;26.40;59.10;;;;;;4994202;28;20037;-75
2022/08/25 08:57:54;;;;;;;6.93;3.25;;;26.60;57.60;;;;;;4993716;28;20049;-76
2022/08/25 09:00:21;;;;;;;8.60;3.65;;;26.70;57.80;;;;;;5010461;28;20503;-77
2022/08/25 09:02:52;;;;;;;5.40;2.92;;;26.80;57.70;;;;;;5010034;28;20123;-77
2022/08/25 09:05:21;;;;;;;6.07;3.20;;;26.90;57.50;;;;;;4994083;28;20043;-75
2022/08/25 09:07:55;;;;;;;6.68;3.20;;;27.00;57.70;;;;;;5010015;28;20090;-76
2022/08/25 09:10:25;;;;;;;7.32;3.25;;;27.20;57.50;;;;;;5009443;28;20478;-75
2022/08/25 09:13:16;;;;;;;5.65;2.80;;;27.40;57.40;;;;;;5010146;28;20046;-75
2022/08/25 09:19:00;;;;;;;8.32;2.95;;;27.60;55.30;;;;;;5010044;28;20060;-77
2022/08/25 09:21:51;;;;;;;7.10;2.72;;;27.80;55.60;;;;;;5009730;28;20513;-76
2022/08/25 09:24:25;;;;;;;6.90;3.00;;;27.90;53.70;;;;;;5010166;28;20137;-76
2022/08/25 09:27:11;;;;;;;6.00;2.95;;;28.00;52.90;;;;;;5009782;28;20050;-75
2022/08/25 09:29:59;;;;;;;6.88;2.92;;;28.10;53.70;;;;;;4954093;28;20410;-76
2022/08/25 09:32:29;;;;;;;5.13;2.88;;;28.30;51.80;;;;;;5008242;28;20041;-76
2022/08/25 09:34:55;;;;;;;8.00;3.15;;;28.40;52.20;;;;;;5009623;28;20049;-76
2022/08/25 09:37:22;;;;;;;6.10;2.88;;;28.50;51.20;;;;;;5009922;28;20048;-77
2022/08/25 09:39:48;;;;;;;6.45;2.53;;;28.60;50.80;;;;;;4993343;28;20107;-76
2022/08/25 09:42:15;;;;;;;3.85;2.38;;;28.70;50.50;;;;;;4993968;28;20033;-75
2022/08/25 09:44:46;;;;;;;6.13;2.70;;;28.90;49.40;;;;;;4993948;28;20049;-76
2022/08/25 09:47:23;;;;;;;6.53;2.67;;;29.10;49.20;;;;;;4993881;28;20242;-75
2022/08/25 09:50:00;;;;;;;7.30;2.67;;;29.10;48.40;;;;;;5009960;28;20470;-76
2022/08/25 09:52:37;;;;;;;4.40;2.10;;;29.30;45.60;;;;;;5009485;28;20037;-76
2022/08/25 09:55:12;;;;;;;4.70;2.30;;;29.50;46.60;;;;;;5009394;28;20046;-76
2022/08/25 09:57:55;;;;;;;7.78;3.03;;;29.60;44.90;;;;;;5009692;28;20545;-77
2022/08/25 10:00:23;;;;;;;8.97;2.70;;;29.60;44.80;;;;;;5009338;28;20125;-76
2022/08/25 10:03:04;;;;;;;4.13;2.30;;;29.80;45.70;;;;;;5009372;28;20285;-78
2022/08/25 10:05:34;;;;;;;7.15;2.90;;;29.90;44.60;;;;;;4992932;28;20081;-77
2022/08/25 10:08:08;;;;;;;4.10;2.55;;;30.10;44.50;;;;;;5009351;28;20046;-76
2022/08/25 10:10:42;;;;;;;6.88;2.65;;;30.10;42.20;;;;;;5009207;28;20050;-77
2022/08/25 10:13:16;;;;;;;6.70;2.33;;;30.30;43.60;;;;;;5009459;28;20077;-75
2022/08/25 10:15:42;;;;;;;7.35;2.70;;;30.30;43.30;;;;;;5009132;28;20132;-77
2022/08/25 10:18:25;;;;;;;7.28;2.20;;;30.40;44.10;;;;;;5009368;28;20107;-77
2022/08/25 10:21:07;;;;;;;6.60;2.70;;;30.60;44.00;;;;;;5009044;28;20073;-77
2022/08/25 10:23:36;;;;;;;4.38;2.20;;;30.70;42.20;;;;;;5009128;28;20041;-77
2022/08/25 10:26:10;;;;;;;5.68;2.85;;;30.70;42.10;;;;;;5009270;28;20375;-77
2022/08/25 10:29:01;;;;;;;5.22;2.55;;;30.80;41.00;;;;;;5009070;28;20077;-76
2022/08/25 10:31:50;;;;;;;5.88;2.55;;;30.90;39.90;;;;;;5008890;28;20050;-77
2022/08/25 10:34:38;;;;;;;6.55;2.42;;;31.00;40.00;;;;;;5008740;28;20540;-76
2022/08/25 10:37:31;;;;;;;4.43;1.95;;;31.20;40.50;;;;;;4992574;28;20038;-78
2022/08/25 10:40:06;;;;;;;6.22;2.33;;;31.30;39.30;;;;;;5009075;28;20049;-77
2022/08/25 10:43:09;;;;;;;7.03;2.53;;;31.40;40.30;;;;;;4992634;28;20424;-78
2022/08/25 10:46:05;;;;;;;4.50;2.70;;;31.50;38.50;;;;;;5008704;28;20489;-77
2022/08/25 10:48:51;;;;;;;6.40;2.60;;;31.60;40.00;;;;;;5000466;28;20053;-78
2022/08/25 10:51:35;;;;;;;5.70;3.20;;;31.80;40.20;;;;;;5008737;28;20052;-77
2022/08/25 10:54:20;;;;;;;5.07;2.40;;;31.80;38.80;;;;;;5008829;28;20042;-78
2022/08/25 10:56:59;;;;;;;3.30;2.30;;;31.90;37.10;;;;;;5009029;28;20042;-76
2022/08/25 10:59:45;;;;;;;5.65;2.50;;;32.00;38.50;;;;;;5008681;28;20038;-77
2022/08/25 11:02:37;;;;;;;2.65;2.05;;;32.10;38.40;;;;;;4992286;28;20038;-77
2022/08/25 11:05:11;;;;;;;4.07;2.53;;;32.20;38.50;;;;;;5008731;28;20050;-77
2022/08/25 11:07:41;;;;;;;5.88;2.45;;;32.30;37.90;;;;;;4992093;28;20050;-77
2022/08/25 11:10:12;;;;;;;3.72;2.30;;;32.40;38.40;;;;;;5008954;28;20439;-77
2022/08/25 11:12:50;;;;;;;5.13;2.50;;;32.50;37.90;;;;;;5008396;28;20050;-76
2022/08/25 11:15:25;;;;;;;6.18;2.67;;;32.50;36.40;;;;;;5008459;28;20038;-77
2022/08/25 11:17:54;;;;;;;5.03;2.53;;;32.60;36.30;;;;;;5008661;28;20046;-77
2022/08/25 11:20:27;;;;;;;6.28;2.85;;;32.60;38.30;;;;;;5008427;28;20046;-77
2022/08/25 11:23:07;;;;;;;3.72;2.50;;;32.80;38.00;;;;;;5008582;28;20528;-77
2022/08/25 11:25:41;;;;;;;5.22;2.38;;;32.80;37.30;;;;;;5008404;28;20077;-77
2022/08/25 11:28:34;;;;;;;5.35;2.38;;;32.90;37.40;;;;;;5008569;28;20054;-77
2022/08/25 11:31:02;;;;;;;5.05;2.92;;;33.00;37.60;;;;;;4998164;28;20397;-77
2022/08/25 11:33:29;;;;;;;4.63;2.05;;;33.20;38.00;;;;;;5010970;28;20089;-79
2022/08/25 11:36:20;;;;;;;5.38;2.25;;;33.10;36.40;;;;;;5011517;28;20042;-76
2022/08/25 11:39:21;;;;;;;4.80;2.45;;;33.20;37.00;;;;;;4998174;28;20060;-77
2022/08/25 11:42:13;;;;;;;5.38;2.47;;;33.40;36.80;;;;;;4995187;28;20046;-78
2022/08/25 11:45:32;;;;;;;4.80;2.67;;;33.50;36.70;;;;;;5011786;28;20133;-77
2022/08/25 11:48:37;;;;;;;3.80;2.40;;;33.50;34.40;;;;;;4936254;29;20626;-77
2022/08/25 11:51:32;;;;;;;5.43;2.58;;;33.50;34.00;;;;;;5011388;28;20046;-77
2022/08/25 11:54:21;;;;;;;4.78;2.40;;;33.70;35.70;;;;;;5008772;28;20562;-76
2022/08/25 11:57:12;;;;;;;5.05;2.33;;;33.70;33.80;;;;;;5011271;28;20038;-76
2022/08/25 11:59:56;;;;;;;5.82;2.15;;;33.90;33.90;;;;;;5011509;28;20401;-76
2022/08/25 12:02:28;;;;;;;4.13;2.58;;;34.10;35.80;;;;;;5011745;28;20038;-77
2022/08/25 12:04:54;;;;;;;3.90;2.28;;;34.30;34.60;;;;;;5011775;28;20412;-76
2022/08/25 12:07:45;;;;;;;4.80;2.20;;;34.30;33.90;;;;;;4994991;28;20049;-77
2022/08/25 12:10:13;;;;;;;4.32;2.45;;;34.40;34.70;;;;;;4976630;28;20457;-77
2022/08/25 12:12:45;;;;;;;2.40;2.20;;;34.50;34.40;;;;;;5011146;28;20049;-76
2022/08/25 12:15:26;;;;;;;4.68;2.33;;;34.50;33.80;;;;;;5011377;28;20042;-76
2022/08/25 12:18:09;;;;;;;5.05;2.58;;;34.60;33.80;;;;;;5011214;28;20079;-76
2022/08/25 12:20:53;;;;;;;4.20;2.40;;;34.70;33.80;;;;;;5011103;28;20042;-77
2022/08/25 12:23:52;;;;;;;4.18;2.45;;;34.80;33.70;;;;;;5010998;28;20128;-76
2022/08/25 12:26:56;;;;;;;3.95;2.20;;;34.90;32.50;;;;;;4985092;28;20052;-76
2022/08/25 12:29:59;;;;;;;9.50;3.15;;;34.60;32.40;;;;;;5011126;28;20125;-76
2022/08/25 12:32:44;;;;;;;5.65;2.33;;;34.80;33.00;;;;;;5010831;28;20440;-77
2022/08/25 12:35:49;;;;;;;6.28;2.80;;;34.90;33.30;;;;;;5010678;28;20485;-76
2022/08/25 12:38:25;;;;;;;4.85;2.88;;;35.00;33.30;;;;;;5010737;28;20073;-77
2022/08/25 12:41:08;;;;;;;4.35;3.75;;;35.10;31.80;;;;;;5010625;28;20042;-76
2022/08/25 12:43:49;;;;;;;6.75;2.50;;;35.00;32.30;;;;;;5009721;28;20042;-77
2022/08/25 12:46:25;;;;;;;3.65;2.20;;;34.80;31.90;;;;;;5010712;28;20043;-76
2022/08/25 12:49:31;;;;;;;3.15;2.08;;;35.00;31.40;;;;;;5010446;28;20084;-76
2022/08/25 12:52:04;;;;;;;2.60;2.30;;;35.10;32.10;;;;;;5010480;28;20076;-76
2022/08/25 12:54:52;;;;;;;3.15;2.45;;;35.10;32.20;;;;;;5010574;28;20045;-76
2022/08/25 12:57:43;;;;;;;4.28;2.15;;;35.00;32.10;;;;;;5010337;28;20057;-75
2022/08/25 13:00:22;;;;;;;3.42;2.50;;;35.00;31.10;;;;;;5010304;28;20042;-76
2022/08/25 13:03:37;;;;;;;4.70;2.63;;;35.00;30.60;;;;;;5010132;28;20570;-77
2022/08/25 13:06:17;;;;;;;3.13;2.40;;;35.00;31.30;;;;;;5010232;28;20049;-77
2022/08/25 13:09:11;;;;;;;4.15;2.30;;;35.00;32.40;;;;;;4993959;28;20486;-76
2022/08/25 13:11:48;;;;;;;3.22;2.10;;;35.10;31.90;;;;;;5010067;28;20125;-77
2022/08/25 13:14:20;;;;;;;3.60;2.15;;;35.00;32.00;;;;;;5010047;28;20046;-76
2022/08/25 13:16:58;;;;;;;3.50;2.20;;;35.00;31.60;;;;;;5010097;28;20038;-77